sensor_id;sensor_type;location;lat;lon;timestamp;temperature;humidity
10964;DHT22;5534;48.784;9.190;2023-08-20T00:00:58;26.00;99.90
10964;DHT22;5534;48.784;9.190;2023-08-20T00:03:25;26.00;99.90
10964;DHT22;5534;48.784;9.190;2023-08-20T00:05:51;25.90;99.90
10964;DHT22;5534;48.784;9.190;2023-08-20T00:08:18;25.80;99.90
10964;DHT22;5534;48.784;9.190;2023-08-20T00:10:44;25.90;99.90
10964;DHT22;5534;48.784;9.190;2023-08-20T00:13:09;25.80;99.90
10964;DHT22;5534;48.784;9.190;2023-08-20T00:15:35;25.80;99.90
10964;DHT22;5534;48.784;9.190;2023-08-20T00:18:01;25.70;99.90
10964;DHT22;5534;48.784;9.190;2023-08-20T00:20:28;25.70;99.90
10964;DHT22;5534;48.784;9.190;2023-08-20T00:22:54;25.70;99.90
10964;DHT22;5534;48.784;9.190;2023-08-20T00:25:20;25.70;99.90
10964;DHT22;5534;48.784;9.190;2023-08-20T00:27:46;25.80;99.90
10964;DHT22;5534;48.784;9.190;2023-08-20T00:30:12;25.80;99.90
10964;DHT22;5534;48.784;9.190;2023-08-20T00:32:38;25.80;99.90
10964;DHT22;5534;48.784;9.190;2023-08-20T00:35:04;25.70;99.90
10964;DHT22;5534;48.784;9.190;2023-08-20T00:37:30;25.70;99.90
10964;DHT22;5534;48.784;9.190;2023-08-20T00:39:56;25.70;99.90
10964;DHT22;5534;48.784;9.190;2023-08-20T00:42:24;25.80;99.90
10964;DHT22;5534;48.784;9.190;2023-08-20T00:44:52;25.70;99.90
10964;DHT22;5534;48.784;9.190;2023-08-20T00:47:18;25.70;99.90
10964;DHT22;5534;48.784;9.190;2023-08-20T00:49:45;25.80;99.90
10964;DHT22;5534;48.784;9.190;2023-08-20T00:52:12;25.70;99.90
10964;DHT22;5534;48.784;9.190;2023-08-20T00:54:40;25.70;99.90
10964;DHT22;5534;48.784;9.190;2023-08-20T00:57:06;25.50;99.90
10964;DHT22;5534;48.784;9.190;2023-08-20T00:59:33;25.50;99.90
10964;DHT22;5534;48.784;9.190;2023-08-20T01:02:00;25.50;99.90
10964;DHT22;5534;48.784;9.190;2023-08-20T01:04:26;25.50;99.90
10964;DHT22;5534;48.784;9.190;2023-08-20T01:07:03;25.60;99.90
10964;DHT22;5534;48.784;9.190;2023-08-20T01:12:16;25.50;99.90
10964;DHT22;5534;48.784;9.190;2023-08-20T01:14:42;25.40;99.90
10964;DHT22;5534;48.784;9.190;2023-08-20T01:17:08;25.50;99.90
10964;DHT22;5534;48.784;9.190;2023-08-20T01:19:34;25.50;99.90
10964;DHT22;5534;48.784;9.190;2023-08-20T01:25:58;25.50;99.90
10964;DHT22;5534;48.784;9.190;2023-08-20T01:28:30;25.10;99.90
10964;DHT22;5534;48.784;9.190;2023-08-20T01:30:58;25.10;99.90
10964;DHT22;5534;48.784;9.190;2023-08-20T01:33:24;25.20;99.90
10964;DHT22;5534;48.784;9.190;2023-08-20T01:35:54;25.20;99.90
10964;DHT22;5534;48.784;9.190;2023-08-20T01:38:20;25.20;99.90
10964;DHT22;5534;48.784;9.190;2023-08-20T01:40:47;25.10;99.90
10964;DHT22;5534;48.784;9.190;2023-08-20T01:43:13;25.10;99.90
10964;DHT22;5534;48.784;9.190;2023-08-20T01:45:39;25.20;99.90
10964;DHT22;5534;48.784;9.190;2023-08-20T01:48:05;25.20;99.90
10964;DHT22;5534;48.784;9.190;2023-08-20T01:50:31;25.20;99.90
10964;DHT22;5534;48.784;9.190;2023-08-20T01:52:56;25.20;99.90
10964;DHT22;5534;48.784;9.190;2023-08-20T01:55:22;25.00;99.90
10964;DHT22;5534;48.784;9.190;2023-08-20T01:57:48;24.80;99.90
10964;DHT22;5534;48.784;9.190;2023-08-20T02:00:14;25.00;99.90
10964;DHT22;5534;48.784;9.190;2023-08-20T02:02:40;25.10;99.90
10964;DHT22;5534;48.784;9.190;2023-08-20T02:05:06;24.90;99.90
10964;DHT22;5534;48.784;9.190;2023-08-20T02:07:32;25.00;99.90
10964;DHT22;5534;48.784;9.190;2023-08-20T02:09:57;25.10;99.90
10964;DHT22;5534;48.784;9.190;2023-08-20T02:12:24;25.10;99.90
10964;DHT22;5534;48.784;9.190;2023-08-20T02:14:50;25.00;99.90
10964;DHT22;5534;48.784;9.190;2023-08-20T02:17:16;24.70;99.90
10964;DHT22;5534;48.784;9.190;2023-08-20T02:19:41;24.70;99.90
10964;DHT22;5534;48.784;9.190;2023-08-20T02:22:07;24.40;99.90
10964;DHT22;5534;48.784;9.190;2023-08-20T02:24:33;24.30;99.90
10964;DHT22;5534;48.784;9.190;2023-08-20T02:26:58;24.40;99.90
10964;DHT22;5534;48.784;9.190;2023-08-20T02:29:24;24.60;99.90
10964;DHT22;5534;48.784;9.190;2023-08-20T02:31:50;24.60;99.90
10964;DHT22;5534;48.784;9.190;2023-08-20T02:34:16;24.50;99.90
10964;DHT22;5534;48.784;9.190;2023-08-20T02:36:42;24.10;99.90
10964;DHT22;5534;48.784;9.190;2023-08-20T02:39:13;24.00;99.90
10964;DHT22;5534;48.784;9.190;2023-08-20T02:41:39;24.10;99.90
10964;DHT22;5534;48.784;9.190;2023-08-20T02:44:05;23.90;99.90
10964;DHT22;5534;48.784;9.190;2023-08-20T02:46:30;24.00;99.90
10964;DHT22;5534;48.784;9.190;2023-08-20T02:48:56;24.00;99.90
10964;DHT22;5534;48.784;9.190;2023-08-20T02:51:22;24.20;99.90
10964;DHT22;5534;48.784;9.190;2023-08-20T02:53:48;24.40;99.90
10964;DHT22;5534;48.784;9.190;2023-08-20T02:56:14;24.20;99.90
10964;DHT22;5534;48.784;9.190;2023-08-20T02:58:40;24.20;99.90
10964;DHT22;5534;48.784;9.190;2023-08-20T03:01:06;24.30;99.90
10964;DHT22;5534;48.784;9.190;2023-08-20T03:03:31;24.40;99.90
10964;DHT22;5534;48.784;9.190;2023-08-20T03:05:57;24.40;99.90
10964;DHT22;5534;48.784;9.190;2023-08-20T03:08:23;24.10;99.90
10964;DHT22;5534;48.784;9.190;2023-08-20T03:10:49;24.00;99.90
10964;DHT22;5534;48.784;9.190;2023-08-20T03:13:15;24.10;99.90
10964;DHT22;5534;48.784;9.190;2023-08-20T03:15:40;24.20;99.90
10964;DHT22;5534;48.784;9.190;2023-08-20T03:18:07;24.40;99.90
10964;DHT22;5534;48.784;9.190;2023-08-20T03:20:32;24.50;99.90
10964;DHT22;5534;48.784;9.190;2023-08-20T03:22:58;24.50;99.90
10964;DHT22;5534;48.784;9.190;2023-08-20T03:25:24;24.60;99.90
10964;DHT22;5534;48.784;9.190;2023-08-20T03:27:51;24.60;99.90
10964;DHT22;5534;48.784;9.190;2023-08-20T03:30:17;24.70;99.90
10964;DHT22;5534;48.784;9.190;2023-08-20T03:32:43;24.70;99.90
10964;DHT22;5534;48.784;9.190;2023-08-20T03:35:09;24.50;99.90
10964;DHT22;5534;48.784;9.190;2023-08-20T03:37:34;24.50;99.90
10964;DHT22;5534;48.784;9.190;2023-08-20T03:40:00;24.50;99.90
10964;DHT22;5534;48.784;9.190;2023-08-20T03:42:26;24.50;99.90
10964;DHT22;5534;48.784;9.190;2023-08-20T03:44:52;24.30;99.90
10964;DHT22;5534;48.784;9.190;2023-08-20T03:47:17;24.50;99.90
10964;DHT22;5534;48.784;9.190;2023-08-20T03:49:47;24.40;99.90
10964;DHT22;5534;48.784;9.190;2023-08-20T03:52:15;24.40;99.90
10964;DHT22;5534;48.784;9.190;2023-08-20T03:54:41;24.30;99.90
10964;DHT22;5534;48.784;9.190;2023-08-20T03:57:07;24.20;99.90
10964;DHT22;5534;48.784;9.190;2023-08-20T03:59:33;24.00;99.90
10964;DHT22;5534;48.784;9.190;2023-08-20T04:01:59;24.10;99.90
10964;DHT22;5534;48.784;9.190;2023-08-20T04:04:25;24.20;99.90
10964;DHT22;5534;48.784;9.190;2023-08-20T04:06:51;24.20;99.90
10964;DHT22;5534;48.784;9.190;2023-08-20T04:09:17;24.00;99.90
10964;DHT22;5534;48.784;9.190;2023-08-20T04:11:43;24.20;99.90
10964;DHT22;5534;48.784;9.190;2023-08-20T04:14:08;24.40;99.90
10964;DHT22;5534;48.784;9.190;2023-08-20T04:16:34;24.50;99.90
10964;DHT22;5534;48.784;9.190;2023-08-20T04:19:00;24.40;99.90
10964;DHT22;5534;48.784;9.190;2023-08-20T04:21:26;24.30;99.90
10964;DHT22;5534;48.784;9.190;2023-08-20T04:23:51;24.20;99.90
10964;DHT22;5534;48.784;9.190;2023-08-20T04:26:17;24.10;99.90
10964;DHT22;5534;48.784;9.190;2023-08-20T04:28:43;24.10;99.90
10964;DHT22;5534;48.784;9.190;2023-08-20T04:31:09;24.10;99.90
10964;DHT22;5534;48.784;9.190;2023-08-20T04:33:35;24.20;99.90
10964;DHT22;5534;48.784;9.190;2023-08-20T04:36:00;24.20;99.90
10964;DHT22;5534;48.784;9.190;2023-08-20T04:38:26;24.10;99.90
10964;DHT22;5534;48.784;9.190;2023-08-20T04:40:52;24.00;99.90
10964;DHT22;5534;48.784;9.190;2023-08-20T04:43:17;24.10;99.90
10964;DHT22;5534;48.784;9.190;2023-08-20T04:45:43;24.20;99.90
10964;DHT22;5534;48.784;9.190;2023-08-20T04:48:09;24.20;99.90
10964;DHT22;5534;48.784;9.190;2023-08-20T04:50:35;24.20;99.90
10964;DHT22;5534;48.784;9.190;2023-08-20T04:53:01;24.10;99.90
10964;DHT22;5534;48.784;9.190;2023-08-20T04:55:27;24.00;99.90
10964;DHT22;5534;48.784;9.190;2023-08-20T04:57:53;24.00;99.90
10964;DHT22;5534;48.784;9.190;2023-08-20T05:00:19;24.00;99.90
10964;DHT22;5534;48.784;9.190;2023-08-20T05:02:45;24.00;99.90
10964;DHT22;5534;48.784;9.190;2023-08-20T05:05:11;24.00;99.90
10964;DHT22;5534;48.784;9.190;2023-08-20T05:07:37;24.00;99.90
10964;DHT22;5534;48.784;9.190;2023-08-20T05:10:03;24.10;99.90
10964;DHT22;5534;48.784;9.190;2023-08-20T05:12:29;24.20;99.90
10964;DHT22;5534;48.784;9.190;2023-08-20T05:14:55;24.20;99.90
10964;DHT22;5534;48.784;9.190;2023-08-20T05:17:20;24.10;99.90
10964;DHT22;5534;48.784;9.190;2023-08-20T05:19:46;24.10;99.90
10964;DHT22;5534;48.784;9.190;2023-08-20T05:22:12;24.10;99.90
10964;DHT22;5534;48.784;9.190;2023-08-20T05:24:38;23.80;99.90
10964;DHT22;5534;48.784;9.190;2023-08-20T05:27:13;23.70;99.90
10964;DHT22;5534;48.784;9.190;2023-08-20T05:29:43;23.90;99.90
10964;DHT22;5534;48.784;9.190;2023-08-20T05:32:09;24.10;99.90
10964;DHT22;5534;48.784;9.190;2023-08-20T05:34:34;24.20;99.90
10964;DHT22;5534;48.784;9.190;2023-08-20T05:37:00;24.20;99.90
10964;DHT22;5534;48.784;9.190;2023-08-20T05:39:26;24.20;99.90
10964;DHT22;5534;48.784;9.190;2023-08-20T05:41:53;24.00;99.90
10964;DHT22;5534;48.784;9.190;2023-08-20T05:44:19;24.00;99.90
10964;DHT22;5534;48.784;9.190;2023-08-20T05:46:45;24.00;99.90
10964;DHT22;5534;48.784;9.190;2023-08-20T05:49:11;24.00;99.90
10964;DHT22;5534;48.784;9.190;2023-08-20T05:51:37;24.10;99.90
10964;DHT22;5534;48.784;9.190;2023-08-20T05:54:03;24.10;99.90
10964;DHT22;5534;48.784;9.190;2023-08-20T05:56:29;24.20;99.90
10964;DHT22;5534;48.784;9.190;2023-08-20T05:58:55;24.30;99.90
10964;DHT22;5534;48.784;9.190;2023-08-20T06:01:21;24.30;99.90
10964;DHT22;5534;48.784;9.190;2023-08-20T06:03:47;24.20;99.90
10964;DHT22;5534;48.784;9.190;2023-08-20T06:06:12;24.00;99.90
10964;DHT22;5534;48.784;9.190;2023-08-20T06:08:38;24.00;99.90
10964;DHT22;5534;48.784;9.190;2023-08-20T06:11:04;24.10;99.90
10964;DHT22;5534;48.784;9.190;2023-08-20T06:13:30;24.20;99.90
10964;DHT22;5534;48.784;9.190;2023-08-20T06:15:56;24.30;99.90
10964;DHT22;5534;48.784;9.190;2023-08-20T06:18:21;24.50;99.90
10964;DHT22;5534;48.784;9.190;2023-08-20T06:20:47;24.60;99.90
10964;DHT22;5534;48.784;9.190;2023-08-20T06:23:13;24.70;99.90
10964;DHT22;5534;48.784;9.190;2023-08-20T06:25:38;24.80;99.90
10964;DHT22;5534;48.784;9.190;2023-08-20T06:28:04;24.90;99.90
10964;DHT22;5534;48.784;9.190;2023-08-20T06:30:30;24.70;99.90
10964;DHT22;5534;48.784;9.190;2023-08-20T06:32:56;24.60;99.90
10964;DHT22;5534;48.784;9.190;2023-08-20T06:35:21;24.90;99.90
10964;DHT22;5534;48.784;9.190;2023-08-20T06:37:47;25.00;99.90
10964;DHT22;5534;48.784;9.190;2023-08-20T06:40:13;25.20;99.90
10964;DHT22;5534;48.784;9.190;2023-08-20T06:42:39;25.30;99.90
10964;DHT22;5534;48.784;9.190;2023-08-20T06:45:05;25.10;99.90
10964;DHT22;5534;48.784;9.190;2023-08-20T06:47:31;25.30;99.90
10964;DHT22;5534;48.784;9.190;2023-08-20T06:49:57;25.50;99.90
10964;DHT22;5534;48.784;9.190;2023-08-20T06:52:23;25.60;99.90
10964;DHT22;5534;48.784;9.190;2023-08-20T06:54:49;25.70;99.90
10964;DHT22;5534;48.784;9.190;2023-08-20T06:57:14;25.70;99.90
10964;DHT22;5534;48.784;9.190;2023-08-20T06:59:40;25.90;99.90
10964;DHT22;5534;48.784;9.190;2023-08-20T07:02:08;26.20;99.90
10964;DHT22;5534;48.784;9.190;2023-08-20T07:04:33;26.60;99.90
10964;DHT22;5534;48.784;9.190;2023-08-20T07:06:59;26.80;99.90
10964;DHT22;5534;48.784;9.190;2023-08-20T07:09:25;27.20;99.90
10964;DHT22;5534;48.784;9.190;2023-08-20T07:11:50;27.00;99.90
10964;DHT22;5534;48.784;9.190;2023-08-20T07:14:16;26.90;99.90
10964;DHT22;5534;48.784;9.190;2023-08-20T07:16:45;27.20;99.90
10964;DHT22;5534;48.784;9.190;2023-08-20T07:19:10;27.50;99.90
10964;DHT22;5534;48.784;9.190;2023-08-20T07:21:39;27.60;99.90
10964;DHT22;5534;48.784;9.190;2023-08-20T07:24:05;28.00;99.90
10964;DHT22;5534;48.784;9.190;2023-08-20T07:26:31;28.50;99.90
10964;DHT22;5534;48.784;9.190;2023-08-20T07:28:57;29.00;99.90
10964;DHT22;5534;48.784;9.190;2023-08-20T07:31:33;29.20;99.90
10964;DHT22;5534;48.784;9.190;2023-08-20T07:34:01;29.50;99.90
10964;DHT22;5534;48.784;9.190;2023-08-20T07:36:28;29.40;99.90
10964;DHT22;5534;48.784;9.190;2023-08-20T07:38:54;29.30;99.90
10964;DHT22;5534;48.784;9.190;2023-08-20T07:41:20;29.20;99.90
10964;DHT22;5534;48.784;9.190;2023-08-20T07:43:47;29.10;99.90
10964;DHT22;5534;48.784;9.190;2023-08-20T07:46:13;28.80;99.90
10964;DHT22;5534;48.784;9.190;2023-08-20T07:48:39;28.80;99.90
10964;DHT22;5534;48.784;9.190;2023-08-20T07:51:05;28.60;99.90
10964;DHT22;5534;48.784;9.190;2023-08-20T07:53:32;29.00;99.90
10964;DHT22;5534;48.784;9.190;2023-08-20T07:56:00;28.90;99.90
10964;DHT22;5534;48.784;9.190;2023-08-20T07:58:25;28.70;99.90
10964;DHT22;5534;48.784;9.190;2023-08-20T08:00:51;28.90;99.90
10964;DHT22;5534;48.784;9.190;2023-08-20T08:03:17;29.40;99.90
10964;DHT22;5534;48.784;9.190;2023-08-20T08:05:50;29.70;99.90
10964;DHT22;5534;48.784;9.190;2023-08-20T08:08:16;29.90;99.90
10964;DHT22;5534;48.784;9.190;2023-08-20T08:10:42;30.10;99.90
10964;DHT22;5534;48.784;9.190;2023-08-20T08:13:11;30.10;99.90
10964;DHT22;5534;48.784;9.190;2023-08-20T08:15:36;30.60;99.90
10964;DHT22;5534;48.784;9.190;2023-08-20T08:18:02;30.80;99.90
10964;DHT22;5534;48.784;9.190;2023-08-20T08:20:29;30.80;99.90
10964;DHT22;5534;48.784;9.190;2023-08-20T08:22:54;30.90;99.90
10964;DHT22;5534;48.784;9.190;2023-08-20T08:25:20;30.50;99.90
10964;DHT22;5534;48.784;9.190;2023-08-20T08:27:46;30.20;99.90
10964;DHT22;5534;48.784;9.190;2023-08-20T08:30:12;29.80;99.90
10964;DHT22;5534;48.784;9.190;2023-08-20T08:32:38;29.50;99.90
10964;DHT22;5534;48.784;9.190;2023-08-20T08:35:03;29.50;99.90
10964;DHT22;5534;48.784;9.190;2023-08-20T08:37:29;29.30;99.90
10964;DHT22;5534;48.784;9.190;2023-08-20T08:39:55;29.30;99.90
10964;DHT22;5534;48.784;9.190;2023-08-20T08:42:22;29.40;99.90
10964;DHT22;5534;48.784;9.190;2023-08-20T08:44:49;29.50;99.90
10964;DHT22;5534;48.784;9.190;2023-08-20T08:47:16;29.80;99.90
10964;DHT22;5534;48.784;9.190;2023-08-20T08:49:42;29.60;99.90
10964;DHT22;5534;48.784;9.190;2023-08-20T08:52:11;29.30;99.90
10964;DHT22;5534;48.784;9.190;2023-08-20T08:54:36;29.10;99.90
10964;DHT22;5534;48.784;9.190;2023-08-20T08:57:02;29.10;99.90
10964;DHT22;5534;48.784;9.190;2023-08-20T08:59:28;29.10;99.90
10964;DHT22;5534;48.784;9.190;2023-08-20T09:01:54;29.30;99.90
10964;DHT22;5534;48.784;9.190;2023-08-20T09:04:22;29.40;99.90
10964;DHT22;5534;48.784;9.190;2023-08-20T09:06:52;29.10;99.90
10964;DHT22;5534;48.784;9.190;2023-08-20T09:09:19;29.10;99.90
10964;DHT22;5534;48.784;9.190;2023-08-20T09:11:46;29.20;99.90
10964;DHT22;5534;48.784;9.190;2023-08-20T09:14:30;29.30;99.90
10964;DHT22;5534;48.784;9.190;2023-08-20T09:17:02;29.50;99.90
10964;DHT22;5534;48.784;9.190;2023-08-20T09:19:29;29.50;99.90
10964;DHT22;5534;48.784;9.190;2023-08-20T09:22:03;29.60;99.90
10964;DHT22;5534;48.784;9.190;2023-08-20T09:24:44;29.50;99.90
10964;DHT22;5534;48.784;9.190;2023-08-20T09:27:11;29.30;99.90
10964;DHT22;5534;48.784;9.190;2023-08-20T09:29:54;29.20;99.90
10964;DHT22;5534;48.784;9.190;2023-08-20T09:32:26;29.20;99.90
10964;DHT22;5534;48.784;9.190;2023-08-20T09:34:53;29.10;99.90
10964;DHT22;5534;48.784;9.190;2023-08-20T09:37:21;29.00;99.90
10964;DHT22;5534;48.784;9.190;2023-08-20T09:39:47;28.90;99.90
10964;DHT22;5534;48.784;9.190;2023-08-20T09:42:13;28.90;99.90
10964;DHT22;5534;48.784;9.190;2023-08-20T09:44:42;28.90;99.90
10964;DHT22;5534;48.784;9.190;2023-08-20T09:47:13;29.00;99.90
10964;DHT22;5534;48.784;9.190;2023-08-20T09:49:46;29.10;99.90
10964;DHT22;5534;48.784;9.190;2023-08-20T09:52:33;29.10;99.90
10964;DHT22;5534;48.784;9.190;2023-08-20T09:55:32;29.30;99.90
10964;DHT22;5534;48.784;9.190;2023-08-20T09:58:02;29.40;99.90
10964;DHT22;5534;48.784;9.190;2023-08-20T10:00:28;29.30;99.90
10964;DHT22;5534;48.784;9.190;2023-08-20T10:02:55;29.40;99.90
10964;DHT22;5534;48.784;9.190;2023-08-20T10:05:26;29.50;99.90
10964;DHT22;5534;48.784;9.190;2023-08-20T10:07:52;29.60;99.90
10964;DHT22;5534;48.784;9.190;2023-08-20T10:10:18;29.50;99.90
10964;DHT22;5534;48.784;9.190;2023-08-20T10:12:45;29.60;99.90
10964;DHT22;5534;48.784;9.190;2023-08-20T10:15:12;29.70;99.90
10964;DHT22;5534;48.784;9.190;2023-08-20T10:17:41;30.00;99.90
10964;DHT22;5534;48.784;9.190;2023-08-20T10:20:09;30.20;99.90
10964;DHT22;5534;48.784;9.190;2023-08-20T10:22:39;30.20;99.90
10964;DHT22;5534;48.784;9.190;2023-08-20T10:25:07;29.90;99.90
10964;DHT22;5534;48.784;9.190;2023-08-20T10:27:35;29.70;99.90
10964;DHT22;5534;48.784;9.190;2023-08-20T10:30:02;29.60;99.90
10964;DHT22;5534;48.784;9.190;2023-08-20T10:32:51;29.50;99.90
10964;DHT22;5534;48.784;9.190;2023-08-20T10:35:26;29.70;99.90
10964;DHT22;5534;48.784;9.190;2023-08-20T10:38:12;29.80;99.90
10964;DHT22;5534;48.784;9.190;2023-08-20T10:40:54;29.80;99.90
10964;DHT22;5534;48.784;9.190;2023-08-20T10:43:38;30.00;99.90
10964;DHT22;5534;48.784;9.190;2023-08-20T10:46:16;30.20;99.90
10964;DHT22;5534;48.784;9.190;2023-08-20T10:48:58;30.40;99.90
10964;DHT22;5534;48.784;9.190;2023-08-20T10:51:26;30.40;99.90
10964;DHT22;5534;48.784;9.190;2023-08-20T10:56:57;30.30;99.90
10964;DHT22;5534;48.784;9.190;2023-08-20T10:59:28;30.30;99.90
10964;DHT22;5534;48.784;9.190;2023-08-20T11:01:57;30.40;99.90
10964;DHT22;5534;48.784;9.190;2023-08-20T11:04:30;30.50;99.90
10964;DHT22;5534;48.784;9.190;2023-08-20T11:06:58;30.40;99.90
10964;DHT22;5534;48.784;9.190;2023-08-20T11:09:29;30.40;99.90
10964;DHT22;5534;48.784;9.190;2023-08-20T11:11:56;30.50;99.90
10964;DHT22;5534;48.784;9.190;2023-08-20T11:14:22;30.50;99.90
10964;DHT22;5534;48.784;9.190;2023-08-20T11:16:48;30.40;99.90
10964;DHT22;5534;48.784;9.190;2023-08-20T11:19:19;30.40;99.90
10964;DHT22;5534;48.784;9.190;2023-08-20T11:21:46;30.30;99.90
10964;DHT22;5534;48.784;9.190;2023-08-20T11:24:12;30.40;99.90
10964;DHT22;5534;48.784;9.190;2023-08-20T11:26:42;30.60;99.90
10964;DHT22;5534;48.784;9.190;2023-08-20T11:29:10;30.50;99.90
10964;DHT22;5534;48.784;9.190;2023-08-20T11:31:38;30.50;99.90
10964;DHT22;5534;48.784;9.190;2023-08-20T11:34:05;30.50;99.90
10964;DHT22;5534;48.784;9.190;2023-08-20T11:36:31;30.50;99.90
10964;DHT22;5534;48.784;9.190;2023-08-20T11:38:57;30.70;99.90
10964;DHT22;5534;48.784;9.190;2023-08-20T11:41:24;30.70;99.90
10964;DHT22;5534;48.784;9.190;2023-08-20T11:43:52;30.90;99.90
10964;DHT22;5534;48.784;9.190;2023-08-20T11:46:22;30.90;99.90
10964;DHT22;5534;48.784;9.190;2023-08-20T11:51:42;31.30;99.90
10964;DHT22;5534;48.784;9.190;2023-08-20T11:54:14;31.40;99.90
10964;DHT22;5534;48.784;9.190;2023-08-20T11:56:50;31.60;99.90
10964;DHT22;5534;48.784;9.190;2023-08-20T11:59:18;31.60;99.90
10964;DHT22;5534;48.784;9.190;2023-08-20T12:01:58;31.50;99.90
10964;DHT22;5534;48.784;9.190;2023-08-20T12:04:27;31.40;99.90
10964;DHT22;5534;48.784;9.190;2023-08-20T12:07:12;31.30;99.90
10964;DHT22;5534;48.784;9.190;2023-08-20T12:09:39;31.30;99.90
10964;DHT22;5534;48.784;9.190;2023-08-20T12:12:06;31.30;99.90
10964;DHT22;5534;48.784;9.190;2023-08-20T12:14:32;31.20;99.90
10964;DHT22;5534;48.784;9.190;2023-08-20T12:16:58;31.20;99.90
10964;DHT22;5534;48.784;9.190;2023-08-20T12:19:24;31.20;99.90
10964;DHT22;5534;48.784;9.190;2023-08-20T12:21:50;31.20;99.90
10964;DHT22;5534;48.784;9.190;2023-08-20T12:24:16;31.20;99.90
10964;DHT22;5534;48.784;9.190;2023-08-20T12:26:44;31.30;99.90
10964;DHT22;5534;48.784;9.190;2023-08-20T12:29:10;31.40;99.90
10964;DHT22;5534;48.784;9.190;2023-08-20T12:31:36;31.50;99.90
10964;DHT22;5534;48.784;9.190;2023-08-20T12:34:02;31.60;99.90
10964;DHT22;5534;48.784;9.190;2023-08-20T12:36:28;31.60;99.90
10964;DHT22;5534;48.784;9.190;2023-08-20T12:38:55;31.60;99.90
10964;DHT22;5534;48.784;9.190;2023-08-20T12:41:21;31.60;99.90
10964;DHT22;5534;48.784;9.190;2023-08-20T12:43:47;31.70;99.90
10964;DHT22;5534;48.784;9.190;2023-08-20T12:46:13;31.70;99.90
10964;DHT22;5534;48.784;9.190;2023-08-20T12:48:39;31.70;99.90
10964;DHT22;5534;48.784;9.190;2023-08-20T12:51:05;31.60;99.90
10964;DHT22;5534;48.784;9.190;2023-08-20T12:53:31;31.60;99.90
10964;DHT22;5534;48.784;9.190;2023-08-20T12:55:59;31.60;99.90
10964;DHT22;5534;48.784;9.190;2023-08-20T12:58:24;31.70;99.90
10964;DHT22;5534;48.784;9.190;2023-08-20T13:00:50;31.80;99.90
10964;DHT22;5534;48.784;9.190;2023-08-20T13:03:17;31.90;99.90
10964;DHT22;5534;48.784;9.190;2023-08-20T13:05:44;31.90;99.90
10964;DHT22;5534;48.784;9.190;2023-08-20T13:08:11;32.00;99.90
10964;DHT22;5534;48.784;9.190;2023-08-20T13:10:41;32.00;99.90
10964;DHT22;5534;48.784;9.190;2023-08-20T13:13:10;32.10;99.90
10964;DHT22;5534;48.784;9.190;2023-08-20T13:15:37;32.10;99.90
10964;DHT22;5534;48.784;9.190;2023-08-20T13:18:03;32.10;99.90
10964;DHT22;5534;48.784;9.190;2023-08-20T13:20:29;31.90;99.90
10964;DHT22;5534;48.784;9.190;2023-08-20T13:22:55;31.90;99.90
10964;DHT22;5534;48.784;9.190;2023-08-20T13:25:21;31.90;99.90
10964;DHT22;5534;48.784;9.190;2023-08-20T13:27:47;32.00;99.90
10964;DHT22;5534;48.784;9.190;2023-08-20T13:30:13;32.00;99.90
10964;DHT22;5534;48.784;9.190;2023-08-20T13:32:39;31.90;99.90
10964;DHT22;5534;48.784;9.190;2023-08-20T13:35:05;31.90;99.90
10964;DHT22;5534;48.784;9.190;2023-08-20T13:37:31;31.90;99.90
10964;DHT22;5534;48.784;9.190;2023-08-20T13:39:58;32.00;99.90
10964;DHT22;5534;48.784;9.190;2023-08-20T13:42:23;31.80;99.90
10964;DHT22;5534;48.784;9.190;2023-08-20T13:44:49;31.80;99.90
10964;DHT22;5534;48.784;9.190;2023-08-20T13:47:15;31.90;99.90
10964;DHT22;5534;48.784;9.190;2023-08-20T13:49:41;31.90;99.90
10964;DHT22;5534;48.784;9.190;2023-08-20T13:52:07;32.00;99.90
10964;DHT22;5534;48.784;9.190;2023-08-20T13:54:34;32.00;99.90
10964;DHT22;5534;48.784;9.190;2023-08-20T13:57:00;32.00;99.90
10964;DHT22;5534;48.784;9.190;2023-08-20T13:59:26;32.10;99.90
10964;DHT22;5534;48.784;9.190;2023-08-20T14:01:51;32.00;99.90
10964;DHT22;5534;48.784;9.190;2023-08-20T14:04:17;32.10;99.90
10964;DHT22;5534;48.784;9.190;2023-08-20T14:06:43;32.10;99.90
10964;DHT22;5534;48.784;9.190;2023-08-20T14:09:09;32.10;99.90
10964;DHT22;5534;48.784;9.190;2023-08-20T14:11:35;32.10;99.90
10964;DHT22;5534;48.784;9.190;2023-08-20T14:14:00;32.10;99.90
10964;DHT22;5534;48.784;9.190;2023-08-20T14:16:26;32.00;99.90
10964;DHT22;5534;48.784;9.190;2023-08-20T14:18:52;32.00;99.90
10964;DHT22;5534;48.784;9.190;2023-08-20T14:21:17;32.00;99.90
10964;DHT22;5534;48.784;9.190;2023-08-20T14:23:43;32.00;99.90
10964;DHT22;5534;48.784;9.190;2023-08-20T14:26:09;32.10;99.90
10964;DHT22;5534;48.784;9.190;2023-08-20T14:28:35;32.00;99.90
10964;DHT22;5534;48.784;9.190;2023-08-20T14:31:04;32.20;99.90
10964;DHT22;5534;48.784;9.190;2023-08-20T14:33:31;32.10;99.90
10964;DHT22;5534;48.784;9.190;2023-08-20T14:35:56;32.10;99.90
10964;DHT22;5534;48.784;9.190;2023-08-20T14:38:22;31.90;99.90
10964;DHT22;5534;48.784;9.190;2023-08-20T14:40:48;31.90;99.90
10964;DHT22;5534;48.784;9.190;2023-08-20T14:43:14;31.90;99.90
10964;DHT22;5534;48.784;9.190;2023-08-20T14:45:39;31.90;99.90
10964;DHT22;5534;48.784;9.190;2023-08-20T14:48:05;31.90;99.90
10964;DHT22;5534;48.784;9.190;2023-08-20T14:50:31;31.70;99.90
10964;DHT22;5534;48.784;9.190;2023-08-20T14:52:58;31.60;99.90
10964;DHT22;5534;48.784;9.190;2023-08-20T14:55:23;31.60;99.90
10964;DHT22;5534;48.784;9.190;2023-08-20T14:57:49;31.40;99.90
10964;DHT22;5534;48.784;9.190;2023-08-20T15:00:15;31.50;99.90
10964;DHT22;5534;48.784;9.190;2023-08-20T15:02:43;31.40;99.90
10964;DHT22;5534;48.784;9.190;2023-08-20T15:05:10;31.30;99.90
10964;DHT22;5534;48.784;9.190;2023-08-20T15:07:36;31.40;99.90
10964;DHT22;5534;48.784;9.190;2023-08-20T15:10:03;31.30;99.90
10964;DHT22;5534;48.784;9.190;2023-08-20T15:12:33;31.30;99.90
10964;DHT22;5534;48.784;9.190;2023-08-20T15:15:00;31.20;99.90
10964;DHT22;5534;48.784;9.190;2023-08-20T15:17:26;31.20;99.90
10964;DHT22;5534;48.784;9.190;2023-08-20T15:19:52;31.20;99.90
10964;DHT22;5534;48.784;9.190;2023-08-20T15:22:17;31.20;99.90
10964;DHT22;5534;48.784;9.190;2023-08-20T15:24:43;31.40;99.90
10964;DHT22;5534;48.784;9.190;2023-08-20T15:27:09;31.50;99.90
10964;DHT22;5534;48.784;9.190;2023-08-20T15:29:34;31.60;99.90
10964;DHT22;5534;48.784;9.190;2023-08-20T15:32:00;31.50;99.90
10964;DHT22;5534;48.784;9.190;2023-08-20T15:34:26;31.60;99.90
10964;DHT22;5534;48.784;9.190;2023-08-20T15:36:52;31.70;99.90
10964;DHT22;5534;48.784;9.190;2023-08-20T15:39:18;31.60;99.90
10964;DHT22;5534;48.784;9.190;2023-08-20T15:41:45;31.50;99.90
10964;DHT22;5534;48.784;9.190;2023-08-20T15:44:12;31.40;99.90
10964;DHT22;5534;48.784;9.190;2023-08-20T15:46:38;31.40;99.90
10964;DHT22;5534;48.784;9.190;2023-08-20T15:49:04;31.40;99.90
10964;DHT22;5534;48.784;9.190;2023-08-20T15:51:30;31.30;99.90
10964;DHT22;5534;48.784;9.190;2023-08-20T15:53:59;31.30;99.90
10964;DHT22;5534;48.784;9.190;2023-08-20T15:56:25;31.30;99.90